createdAt,value
2022-12-28T00:01:18.878Z,101624.84
2022-12-28T00:03:49.016Z,101622.16
2022-12-28T00:06:17.450Z,101619.28
2022-12-28T00:08:45.277Z,101612.91
2022-12-28T00:11:26.660Z,101611.25
2022-12-28T00:13:59.264Z,101604.44
2022-12-28T00:16:29.403Z,101603.59
2022-12-28T00:18:59.455Z,101606.28
2022-12-28T00:21:27.376Z,101592.06
2022-12-28T00:23:58.259Z,101575.78
2022-12-28T00:26:27.281Z,101564.44
2022-12-28T00:28:59.974Z,101553.72
2022-12-28T00:31:32.020Z,101549.19
2022-12-28T00:34:01.273Z,101545.69
2022-12-28T00:37:11.682Z,101528.97
2022-12-28T00:39:16.870Z,101526.09
2022-12-28T00:41:44.628Z,101524.44
2022-12-28T00:44:12.583Z,101525.28
2022-12-28T00:46:40.303Z,101533.31
2022-12-28T00:49:09.445Z,101526.09
2022-12-28T00:51:37.275Z,101527.94
2022-12-28T00:54:05.420Z,101513.72
2022-12-28T00:56:33.262Z,101502.38
2022-12-28T00:59:01.482Z,101517.41
2022-12-28T01:01:30.218Z,101500.31
2022-12-28T01:03:59.475Z,101499.50
2022-12-28T01:06:29.617Z,101503.00
2022-12-28T01:08:57.490Z,101505.69
2022-12-28T01:11:27.081Z,101493.13
2022-12-28T01:13:57.535Z,101484.88
2022-12-28T01:16:27.647Z,101471.19
2022-12-28T01:18:57.834Z,101484.44
2022-12-28T01:21:29.409Z,101484.44
2022-12-28T01:23:59.151Z,101478.06
2022-12-28T01:26:27.737Z,101472.72
2022-12-28T01:28:55.516Z,101468.19
2022-12-28T01:31:23.760Z,101468.19
2022-12-28T01:33:51.630Z,101465.50
2022-12-28T01:36:21.229Z,101449.44
2022-12-28T01:38:53.950Z,101432.47
2022-12-28T01:41:22.232Z,101451.72
2022-12-28T01:44:28.364Z,101448.22
2022-12-28T01:47:01.210Z,101440.38
2022-12-28T01:49:31.511Z,101428.63
2022-12-28T01:52:03.708Z,101437.88
2022-12-28T01:54:37.593Z,101424.31
2022-12-28T01:57:05.793Z,101423.28
2022-12-28T01:59:38.040Z,101420.41
2022-12-28T02:02:06.204Z,101424.94
2022-12-28T02:04:34.232Z,101397.28
2022-12-28T02:07:02.148Z,101403.50
2022-12-28T02:09:36.614Z,101397.13
2022-12-28T02:12:04.787Z,101393.63
2022-12-28T02:14:33.133Z,101397.75
2022-12-28T02:17:01.064Z,101391.56
2022-12-28T02:19:38.004Z,101384.56
2022-12-28T02:22:25.867Z,101366.97
2022-12-28T02:25:15.251Z,101373.66
2022-12-28T02:27:55.901Z,101355.72
2022-12-28T02:30:25.290Z,101348.91
2022-12-28T02:33:01.998Z,101347.06
2022-12-28T02:35:35.727Z,101336.53
2022-12-28T02:38:12.380Z,101311.34
2022-12-28T02:40:44.853Z,101321.91
2022-12-28T02:43:13.613Z,101325.41
2022-12-28T02:46:02.589Z,101313.88
2022-12-28T02:48:57.639Z,101310.19
2022-12-28T02:51:45.326Z,101306.47
2022-12-28T02:54:54.000Z,101309.97
2022-12-28T02:57:36.910Z,101302.97
2022-12-28T03:00:09.070Z,101300.28
2022-12-28T03:02:54.274Z,101294.28
2022-12-28T03:05:51.475Z,101292.44
2022-12-28T03:08:23.863Z,101296.78
2022-12-28T03:10:58.293Z,101281.72
2022-12-28T03:13:44.238Z,101293.06
2022-12-28T03:16:18.433Z,101285.25
2022-12-28T03:19:09.016Z,101288.75
2022-12-28T03:21:56.119Z,101282.56
2022-12-28T03:24:42.615Z,101280.91
2022-12-28T03:27:33.359Z,101281.53
2022-12-28T03:30:23.573Z,101273.69
2022-12-28T03:32:52.270Z,101272.88
2022-12-28T03:35:24.753Z,101268.13
2022-12-28T03:37:57.924Z,101268.13
2022-12-28T03:40:32.366Z,101269.78
2022-12-28T03:43:22.601Z,101261.75
2022-12-28T03:45:57.651Z,101264.63
2022-12-28T03:48:26.587Z,101251.25
2022-12-28T03:50:56.906Z,101257.22
2022-12-28T03:53:30.093Z,101258.06
2022-12-28T03:56:07.935Z,101255.78
2022-12-28T03:58:35.733Z,101250.41
2022-12-28T04:01:03.667Z,101239.50
2022-12-28T04:03:31.601Z,101243.63
2022-12-28T04:06:01.330Z,101235.78
2022-12-28T04:08:29.669Z,101239.09
2022-12-28T04:11:00.013Z,101234.97
2022-12-28T04:13:30.563Z,101226.91
2022-12-28T04:16:00.311Z,101226.34
2022-12-28T04:18:28.796Z,101230.66
2022-12-28T04:20:56.589Z,101238.28
2022-12-28T04:23:26.363Z,101227.78
2022-12-28T04:26:01.964Z,101233.16
2022-12-28T04:28:30.630Z,101231.50
2022-12-28T04:30:59.361Z,101238.69
2022-12-28T04:33:28.314Z,101226.72
2022-12-28T04:36:04.870Z,101227.78
2022-12-28T04:38:34.140Z,101221.38
2022-12-28T04:41:02.041Z,101213.75
2022-12-28T04:43:30.596Z,101221.59
2022-12-28T04:45:59.025Z,101224.88
2022-12-28T04:48:27.285Z,101218.69
2022-12-28T04:50:55.880Z,101227.78
2022-12-28T04:53:24.320Z,101225.69
2022-12-28T04:55:53.937Z,101216.84
2022-12-28T04:58:21.858Z,101222.81
2022-12-28T05:00:49.708Z,101216.84
2022-12-28T05:03:17.445Z,101219.50
2022-12-28T05:05:45.224Z,101221.16
2022-12-28T05:08:13.016Z,101225.31
2022-12-28T05:10:40.811Z,101219.94
2022-12-28T05:13:09.986Z,101209.22
2022-12-28T05:15:39.373Z,101217.88
2022-12-28T05:18:07.259Z,101211.69
2022-12-28T05:20:35.189Z,101214.59
2022-12-28T05:23:02.990Z,101212.53
2022-12-28T05:25:30.936Z,101218.72
2022-12-28T05:27:58.719Z,101210.69
2022-12-28T05:30:27.870Z,101211.69
2022-12-28T05:32:55.613Z,101199.13
2022-12-28T05:35:23.399Z,101199.13
2022-12-28T05:37:51.123Z,101201.81
2022-12-28T05:40:18.848Z,101203.25
2022-12-28T05:42:51.280Z,101190.88
2022-12-28T05:45:20.082Z,101205.13
2022-12-28T05:47:49.209Z,101199.75
2022-12-28T05:50:17.522Z,101207.78
2022-12-28T05:52:45.293Z,101208.63
2022-12-28T05:55:13.092Z,101204.09
2022-12-28T05:57:40.927Z,101205.94
2022-12-28T06:00:09.949Z,101197.06
2022-12-28T06:02:37.811Z,101199.56
2022-12-28T06:05:08.620Z,101184.31
2022-12-28T06:07:36.762Z,101187.19
2022-12-28T06:10:04.897Z,101181.63
2022-12-28T06:12:32.695Z,101183.06
2022-12-28T06:15:00.749Z,101183.47
2022-12-28T06:17:28.513Z,101178.53
2022-12-28T06:19:56.295Z,101179.56
2022-12-28T06:22:25.470Z,101187.59
2022-12-28T06:24:53.318Z,101182.88
2022-12-28T06:27:21.114Z,101176.06
2022-12-28T06:29:49.150Z,101167.00
2022-12-28T06:32:16.968Z,101165.13
2022-12-28T06:34:44.743Z,101167.00
2022-12-28T06:37:12.489Z,101162.66
2022-12-28T06:39:41.812Z,101154.41
2022-12-28T06:42:09.599Z,101159.78
2022-12-28T06:44:44.140Z,101162.47
2022-12-28T06:47:12.715Z,101156.06
2022-12-28T06:49:40.519Z,101147.19
2022-12-28T06:52:08.288Z,101148.22
2022-12-28T06:54:36.099Z,101145.34
2022-12-28T06:57:05.228Z,101153.38
2022-12-28T06:59:33.838Z,101139.78
2022-12-28T07:02:01.769Z,101141.44
2022-12-28T07:04:29.798Z,101145.16
2022-12-28T07:06:57.645Z,101135.25
2022-12-28T07:09:25.422Z,101131.53
2022-12-28T07:11:53.348Z,101130.53
2022-12-28T07:14:22.622Z,101121.66
2022-12-28T07:16:50.481Z,101114.63
2022-12-28T07:19:18.260Z,101119.19
2022-12-28T07:21:46.121Z,101126.38
2022-12-28T07:24:13.890Z,101119.19
2022-12-28T07:26:41.636Z,101118.75
2022-12-28T07:29:11.230Z,101125.97
2022-12-28T07:31:45.691Z,101120.63
2022-12-28T07:34:14.478Z,101114.00
2022-12-28T07:36:42.389Z,101129.28
2022-12-28T07:39:10.597Z,101125.78
2022-12-28T07:41:38.826Z,101115.69
2022-12-28T07:44:06.932Z,101123.72
2022-12-28T07:46:36.604Z,101124.53
2022-12-28T07:49:06.228Z,101127.44
2022-12-28T07:51:35.994Z,101126.41
2022-12-28T07:54:04.998Z,101129.06
2022-12-28T07:59:02.803Z,101130.53
2022-12-28T08:01:32.854Z,101135.91
2022-12-28T08:04:02.599Z,101124.97
2022-12-28T08:06:35.528Z,101143.94
2022-12-28T08:09:03.426Z,101139.41
2022-12-28T08:11:33.812Z,101130.13
2022-12-28T08:14:02.778Z,101136.53
2022-12-28T08:16:32.822Z,101125.81
2022-12-28T08:19:00.955Z,101124.38
2022-12-28T08:21:31.972Z,101134.88
2022-12-28T08:24:00.481Z,101124.97
2022-12-28T08:26:30.559Z,101125.41
2022-12-28T08:29:00.059Z,101130.56
2022-12-28T08:31:30.093Z,101125.81
2022-12-28T08:33:59.818Z,101135.09
2022-12-28T08:36:28.020Z,101126.44
2022-12-28T08:38:58.757Z,101111.38
2022-12-28T08:41:28.209Z,101115.28
2022-12-28T08:43:56.199Z,101127.66
2022-12-28T08:46:26.205Z,101122.72
2022-12-28T08:48:55.887Z,101132.22
2022-12-28T08:51:25.866Z,101116.31
2022-12-28T08:53:54.741Z,101122.50
2022-12-28T08:56:25.569Z,101123.72
2022-12-28T08:58:53.740Z,101128.84
2022-12-28T09:01:24.421Z,101110.25
2022-12-28T09:03:54.115Z,101129.41
2022-12-28T09:06:24.725Z,101131.44
2022-12-28T09:09:05.436Z,101125.63
2022-12-28T09:11:36.371Z,101124.22
2022-12-28T09:14:05.128Z,101128.72
2022-12-28T09:16:33.126Z,101118.94
2022-12-28T09:19:03.339Z,101120.97
2022-12-28T09:21:33.030Z,101110.47
2022-12-28T09:24:00.926Z,101122.41
2022-12-28T09:26:31.214Z,101128.69
2022-12-28T09:29:01.865Z,101124.56
2022-12-28T09:31:31.380Z,101123.31
2022-12-28T09:36:50.010Z,101124.34
2022-12-28T09:39:19.809Z,101121.06
2022-12-28T09:41:52.034Z,101122.00
2022-12-28T09:44:39.985Z,101110.25
2022-12-28T09:47:20.151Z,101122.16
2022-12-28T09:49:59.037Z,101121.34
2022-12-28T09:52:31.523Z,101121.13
2022-12-28T09:55:08.279Z,101099.66
2022-12-28T09:57:38.054Z,101114.25
2022-12-28T10:00:09.758Z,101102.25
2022-12-28T10:02:39.345Z,101119.97
2022-12-28T10:05:08.714Z,101110.97
2022-12-28T10:07:38.475Z,101123.25
2022-12-28T10:10:07.117Z,101108.47
2022-12-28T10:12:35.394Z,101099.91
2022-12-28T10:15:03.357Z,101101.03
2022-12-28T10:17:32.559Z,101100.72
2022-12-28T10:20:00.575Z,101105.50
2022-12-28T10:22:40.628Z,101103.09
2022-12-28T10:25:18.512Z,101097.75
2022-12-28T10:27:46.874Z,101095.91
2022-12-28T10:30:17.889Z,101100.03
2022-12-28T10:33:02.083Z,101101.28
2022-12-28T10:35:35.810Z,101091.78
2022-12-28T10:38:07.525Z,101086.06
2022-12-28T10:40:39.717Z,101090.56
2022-12-28T10:43:11.142Z,101087.06
2022-12-28T10:45:43.155Z,101079.47
2022-12-28T10:48:18.310Z,101072.66
2022-12-28T10:50:51.360Z,101081.94
2022-12-28T10:53:24.491Z,101076.09
2022-12-28T10:56:02.497Z,101081.09
2022-12-28T10:58:33.386Z,101062.34
2022-12-28T11:01:05.236Z,101079.06
2022-12-28T11:03:37.515Z,101067.47
2022-12-28T11:06:13.741Z,101069.94
2022-12-28T11:08:43.274Z,101070.28
2022-12-28T11:11:19.750Z,101068.16
2022-12-28T11:13:51.595Z,101061.22
2022-12-28T11:16:19.538Z,101069.19
2022-12-28T11:18:49.063Z,101059.78
2022-12-28T11:21:21.443Z,101052.06
2022-12-28T11:23:50.791Z,101057.59
2022-12-28T11:26:20.035Z,101050.47
2022-12-28T11:28:51.598Z,101049.69
2022-12-28T11:31:27.605Z,101044.41
2022-12-28T11:33:59.911Z,101039.13
2022-12-28T11:36:29.266Z,101037.91
2022-12-28T11:38:57.750Z,101032.97
2022-12-28T11:41:56.256Z,101020.00
2022-12-28T11:44:54.340Z,101018.34
2022-12-28T11:47:32.759Z,101020.84
2022-12-28T11:50:39.349Z,101006.81
2022-12-28T11:53:22.300Z,101016.94
2022-12-28T11:56:03.112Z,100997.72
2022-12-28T11:59:15.585Z,100982.91
2022-12-28T12:01:45.444Z,100978.03
2022-12-28T12:04:46.225Z,100980.28
2022-12-28T12:07:31.472Z,100973.19
2022-12-28T12:10:28.928Z,100975.66
2022-12-28T12:12:56.994Z,100961.63
2022-12-28T12:15:32.414Z,100977.31
2022-12-28T12:18:03.808Z,100970.47
2022-12-28T12:20:57.060Z,100947.56
2022-12-28T12:23:35.215Z,100949.41
2022-12-28T12:26:20.943Z,100955.00
2022-12-28T12:28:51.389Z,100955.22
2022-12-28T12:31:29.690Z,100947.75
2022-12-28T12:34:02.598Z,100938.50
2022-12-28T12:36:47.981Z,100933.94
2022-12-28T12:39:29.621Z,100926.28
2022-12-28T12:42:11.199Z,100927.50
2022-12-28T12:44:44.389Z,100913.63
2022-12-28T12:47:46.933Z,100903.31
2022-12-28T12:50:25.943Z,100901.22
2022-12-28T12:53:03.592Z,100889.94
2022-12-28T12:55:47.492Z,100891.69
2022-12-28T12:58:24.667Z,100891.41
2022-12-28T13:01:11.024Z,100894.06
2022-12-28T13:03:45.550Z,100879.47
2022-12-28T13:06:16.659Z,100879.69
2022-12-28T13:08:49.520Z,100872.72
2022-12-28T13:11:19.371Z,100868.28
2022-12-28T13:13:51.336Z,100859.69
2022-12-28T13:16:21.574Z,100857.97
2022-12-28T13:18:57.621Z,100860.53
2022-12-28T13:21:26.972Z,100841.25
2022-12-28T13:23:55.704Z,100836.72
2022-12-28T13:26:28.531Z,100828.03
2022-12-28T13:29:00.955Z,100829.03
2022-12-28T13:31:34.534Z,100816.50
2022-12-28T13:34:04.723Z,100805.63
2022-12-28T13:36:32.983Z,100802.09
2022-12-28T13:39:04.697Z,100792.38
2022-12-28T13:41:34.902Z,100791.03
2022-12-28T13:44:29.895Z,100783.78
2022-12-28T13:47:03.987Z,100784.09
2022-12-28T13:49:36.811Z,100781.84
2022-12-28T13:52:10.262Z,100772.59
2022-12-28T13:54:39.601Z,100773.19
2022-12-28T13:57:44.620Z,100766.00
2022-12-28T13:59:59.325Z,100749.00
2022-12-28T14:02:29.271Z,100743.53
2022-12-28T14:04:57.678Z,100730.34
2022-12-28T14:07:29.184Z,100716.38
2022-12-28T14:09:58.032Z,100721.84
2022-12-28T14:12:26.341Z,100721.56
2022-12-28T14:14:54.883Z,100710.81
2022-12-28T14:17:24.610Z,100710.75
2022-12-28T14:19:53.596Z,100701.91
2022-12-28T14:22:33.055Z,100688.69
2022-12-28T14:25:07.511Z,100699.59
2022-12-28T14:27:38.058Z,100696.09
2022-12-28T14:30:08.304Z,100684.50
2022-12-28T14:32:42.656Z,100669.22
2022-12-28T14:35:28.481Z,100684.47
2022-12-28T14:37:58.814Z,100686.22
2022-12-28T14:40:31.017Z,100673.03
2022-12-28T14:43:00.305Z,100675.25
2022-12-28T14:46:05.221Z,100672.78
2022-12-28T14:48:40.485Z,100658.00
2022-12-28T14:51:27.013Z,100650.63
2022-12-28T14:54:18.740Z,100656.19
2022-12-28T14:56:51.196Z,100635.38
2022-12-28T14:59:23.528Z,100634.66
2022-12-28T15:01:51.719Z,100636.16
2022-12-28T15:04:30.540Z,100639.31
2022-12-28T15:06:58.872Z,100624.91
2022-12-28T15:09:26.790Z,100625.59
2022-12-28T15:12:09.979Z,100623.59
2022-12-28T15:14:38.052Z,100615.16
2022-12-28T15:17:06.421Z,100615.63
2022-12-28T15:19:35.961Z,100605.56
2022-12-28T15:22:03.819Z,100596.91
2022-12-28T15:24:34.208Z,100604.38
2022-12-28T15:27:02.580Z,100599.22
2022-12-28T15:32:18.557Z,100591.41
2022-12-28T15:34:47.857Z,100581.69
2022-12-28T15:37:15.638Z,100583.56
2022-12-28T15:39:43.484Z,100585.78
2022-12-28T15:42:11.427Z,100570.13
2022-12-28T15:44:39.205Z,100574.09
2022-12-28T15:47:07.236Z,100557.69
2022-12-28T15:49:35.104Z,100556.31
2022-12-28T15:52:04.419Z,100561.13
2022-12-28T15:54:32.246Z,100557.84
2022-12-28T15:57:00.027Z,100550.81
2022-12-28T15:59:28.174Z,100553.75
2022-12-28T16:01:56.159Z,100546.50
2022-12-28T16:04:24.225Z,100545.91
2022-12-28T16:06:51.986Z,100536.78
2022-12-28T16:09:21.459Z,100539.72
2022-12-28T16:11:54.834Z,100538.88
2022-12-28T16:14:23.147Z,100542.84
2022-12-28T16:16:51.351Z,100533.53
2022-12-28T16:19:19.393Z,100528.38
2022-12-28T16:21:49.493Z,100536.44
2022-12-28T16:24:17.725Z,100521.38
2022-12-28T16:26:47.624Z,100515.75
2022-12-28T16:29:15.612Z,100501.50
2022-12-28T16:31:43.405Z,100504.19
2022-12-28T16:34:13.861Z,100498.81
2022-12-28T16:36:42.359Z,100493.22
2022-12-28T16:39:13.905Z,100481.88
2022-12-28T16:41:41.709Z,100473.81
2022-12-28T16:44:24.223Z,100469.72
2022-12-28T16:46:54.277Z,100473.22
2022-12-28T16:49:22.338Z,100448.59
2022-12-28T16:51:50.217Z,100460.84
2022-12-28T16:54:19.177Z,100461.91
2022-12-28T16:56:47.952Z,100459.22
2022-12-28T16:59:19.376Z,100447.63
2022-12-28T17:01:47.705Z,100447.63
2022-12-28T17:04:15.940Z,100442.16
2022-12-28T17:06:46.502Z,100420.91
2022-12-28T17:09:15.027Z,100439.63
2022-12-28T17:11:43.295Z,100433.78
2022-12-28T17:14:12.973Z,100427.94
2022-12-28T17:16:42.322Z,100428.38
2022-12-28T17:19:10.137Z,100414.56
2022-12-28T17:21:38.011Z,100415.09
2022-12-28T17:24:06.528Z,100416.03
2022-12-28T17:26:34.410Z,100406.78
2022-12-28T17:29:02.221Z,100402.03
2022-12-28T17:31:30.250Z,100396.66
2022-12-28T17:34:00.337Z,100397.75
2022-12-28T17:36:28.394Z,100396.72
2022-12-28T17:38:56.441Z,100396.25
2022-12-28T17:41:27.743Z,100388.06
2022-12-28T17:43:57.249Z,100371.38
2022-12-28T17:46:26.567Z,100382.25
2022-12-28T17:48:55.104Z,100376.50
2022-12-28T17:51:26.375Z,100363.06
2022-12-28T17:53:56.262Z,100369.97
2022-12-28T17:56:24.097Z,100365.88
2022-12-28T17:58:57.147Z,100356.66
2022-12-28T18:01:26.033Z,100339.47
2022-12-28T18:03:54.320Z,100354.31
2022-12-28T18:06:22.536Z,100345.84
2022-12-28T18:08:51.761Z,100362.13
2022-12-28T18:11:20.743Z,100353.00
2022-12-28T18:13:49.178Z,100339.34
2022-12-28T18:16:19.827Z,100339.25
2022-12-28T18:18:47.806Z,100339.78
2022-12-28T18:21:21.681Z,100337.59
2022-12-28T18:23:53.317Z,100347.66
2022-12-28T18:26:23.162Z,100343.22
2022-12-28T18:28:51.015Z,100324.50
2022-12-28T18:31:20.087Z,100322.28
2022-12-28T18:33:48.521Z,100319.34
2022-12-28T18:36:17.981Z,100318.81
2022-12-28T18:38:47.526Z,100320.75
2022-12-28T18:41:20.692Z,100315.34
2022-12-28T18:43:48.923Z,100307.66
2022-12-28T18:46:16.841Z,100314.16
2022-12-28T18:48:45.017Z,100307.38
2022-12-28T18:51:14.622Z,100299.81
2022-12-28T18:53:43.181Z,100308.38
2022-12-28T18:56:13.334Z,100302.81
2022-12-28T18:58:43.335Z,100297.38
2022-12-28T19:01:32.935Z,100301.69
2022-12-28T19:04:02.252Z,100305.25
2022-12-28T19:06:30.382Z,100295.22
2022-12-28T19:09:00.464Z,100299.91
2022-12-28T19:11:28.886Z,100296.56
2022-12-28T19:13:58.642Z,100293.88
2022-12-28T19:16:30.925Z,100288.97
2022-12-28T19:19:00.287Z,100269.22
2022-12-28T19:21:30.143Z,100283.16
2022-12-28T19:24:03.061Z,100268.53
2022-12-28T19:26:32.558Z,100280.34
2022-12-28T19:29:03.522Z,100276.75
2022-12-28T19:31:32.503Z,100274.19
2022-12-28T19:34:00.648Z,100265.78
2022-12-28T19:36:28.477Z,100264.16
2022-12-28T19:38:56.743Z,100275.97
2022-12-28T19:41:25.135Z,100264.53
2022-12-28T19:43:53.232Z,100272.13
2022-12-28T19:46:30.814Z,100276.09
2022-12-28T19:48:59.416Z,100284.41
2022-12-28T19:51:31.065Z,100269.34
2022-12-28T19:54:00.230Z,100261.41
2022-12-28T19:56:28.107Z,100264.44
2022-12-28T19:59:03.059Z,100257.22
2022-12-28T20:01:35.672Z,100259.28
2022-12-28T20:04:10.562Z,100247.97
2022-12-28T20:06:42.261Z,100239.56
2022-12-28T20:09:10.198Z,100240.38
2022-12-28T20:11:38.427Z,100239.56
2022-12-28T20:14:06.529Z,100245.16
2022-12-28T20:16:36.427Z,100238.97
2022-12-28T20:19:06.875Z,100237.09
2022-12-28T20:21:36.197Z,100220.66
2022-12-28T20:24:04.944Z,100230.22
2022-12-28T20:26:33.494Z,100248.34
2022-12-28T20:29:02.804Z,100235.13
2022-12-28T20:31:31.154Z,100241.56
2022-12-28T20:34:01.617Z,100235.59
2022-12-28T20:36:31.062Z,100246.34
2022-12-28T20:38:58.846Z,100231.28
2022-12-28T20:41:45.329Z,100233.97
2022-12-28T20:44:15.758Z,100218.47
2022-12-28T20:46:44.186Z,100214.34
2022-12-28T20:49:14.190Z,100216.78
2022-12-28T20:51:42.641Z,100223.22
2022-12-28T20:54:11.442Z,100219.72
2022-12-28T20:56:41.717Z,100224.38
2022-12-28T20:59:10.441Z,100224.84
2022-12-28T21:01:39.640Z,100228.00
2022-12-28T21:04:08.015Z,100215.19
2022-12-28T21:06:37.293Z,100207.97
2022-12-28T21:09:05.173Z,100209.31
2022-12-28T21:11:33.355Z,100223.91
2022-12-28T21:14:01.349Z,100217.13
2022-12-28T21:16:29.436Z,100220.88
2022-12-28T21:18:57.262Z,100212.81
2022-12-28T21:21:25.038Z,100208.84
2022-12-28T21:23:54.344Z,100193.56
2022-12-28T21:26:22.906Z,100200.44
2022-12-28T21:28:50.750Z,100191.56
2022-12-28T21:31:18.590Z,100192.59
2022-12-28T21:33:46.588Z,100181.03
2022-12-28T21:36:16.794Z,100192.59
2022-12-28T21:38:45.514Z,100168.66
2022-12-28T21:41:16.554Z,100162.72
2022-12-28T21:43:44.354Z,100156.97
2022-12-28T21:46:15.878Z,100172.75
2022-12-28T21:48:43.749Z,100165.16
2022-12-28T21:51:27.779Z,100164.34
2022-12-28T21:53:55.917Z,100156.28
2022-12-28T21:56:25.212Z,100178.34
2022-12-28T21:58:53.051Z,100160.38
2022-12-28T22:01:38.844Z,100156.63
2022-12-28T22:04:24.668Z,100157.66
2022-12-28T22:06:52.599Z,100154.97
2022-12-28T22:09:37.701Z,100152.06
2022-12-28T22:12:25.394Z,100154.75
2022-12-28T22:15:13.804Z,100143.19
2022-12-28T22:17:41.654Z,100138.38
2022-12-28T22:20:11.511Z,100146.44
2022-12-28T22:22:40.382Z,100151.00
2022-12-28T22:25:09.173Z,100144.22
2022-12-28T22:27:38.388Z,100143.75
2022-12-28T22:30:07.048Z,100136.50
2022-12-28T22:32:34.810Z,100135.47
2022-12-28T22:35:02.697Z,100120.28
2022-12-28T22:37:30.527Z,100138.97
2022-12-28T22:39:58.303Z,100140.00
2022-12-28T22:42:26.107Z,100138.81
2022-12-28T22:44:55.269Z,100135.22
2022-12-28T22:47:23.671Z,100129.66
2022-12-28T22:49:51.446Z,100138.16
2022-12-28T22:52:19.221Z,100135.69
2022-12-28T22:54:47.507Z,100122.41
2022-12-28T22:57:15.450Z,100130.09
2022-12-28T22:59:43.278Z,100128.22
2022-12-28T23:02:12.790Z,100127.38
2022-12-28T23:04:41.281Z,100120.38
2022-12-28T23:07:09.080Z,100129.50
2022-12-28T23:09:36.936Z,100119.56
2022-12-28T23:12:05.208Z,100115.25
2022-12-28T23:14:50.588Z,100118.75
2022-12-28T23:17:19.829Z,100108.25
2022-12-28T23:20:05.930Z,100112.31
2022-12-28T23:22:53.566Z,100113.13
2022-12-28T23:25:47.060Z,100107.75
2022-12-28T23:28:17.139Z,100100.28
2022-12-28T23:30:47.221Z,100090.72
2022-12-28T23:33:16.915Z,100096.44
2022-12-28T23:35:45.282Z,100088.94
2022-12-28T23:38:13.211Z,100097.00
2022-12-28T23:40:42.765Z,100087.91
2022-12-28T23:43:10.746Z,100079.84
2022-12-28T23:45:38.532Z,100090.34
2022-12-28T23:48:06.836Z,100058.97
2022-12-28T23:50:36.151Z,100057.53
2022-12-28T23:53:03.914Z,100066.41
2022-12-28T23:55:31.679Z,100059.16
2022-12-28T23:57:59.474Z,100039.03
